Time;durP1;ratioP1;P1;durP2;ratioP2;P2;SDS_P1;SDS_P2;PMS_P1;PMS_P2;Temp;Humidity;BMP_temperature;BMP_pressure;BME280_temperature;BME280_humidity;BME280_pressure;Samples;Min_cycle;Max_cycle;Signal;HPM_P1;HPM_P2
2022/09/02 00:01:31;;;;;;;1.45;1.10;;;;;;;17.28;85.64;101705.66;5050283;28;20485;-74
2022/09/02 00:04:04;;;;;;;1.70;0.93;;;;;;;17.26;83.03;101707.47;5038821;28;20138;-74
2022/09/02 00:06:30;;;;;;;1.38;0.70;;;;;;;17.15;83.64;101704.75;5047612;28;20110;-74
2022/09/02 00:08:57;;;;;;;5.03;1.00;;;;;;;17.11;83.56;101703.84;5042385;28;20067;-75
2022/09/02 00:11:26;;;;;;;11.32;1.02;;;;;;;17.13;83.23;101704.75;5052203;28;20075;-74
2022/09/02 00:13:52;;;;;;;1.02;0.70;;;;;;;17.12;84.67;101699.41;5052615;28;20154;-74
2022/09/02 00:16:18;;;;;;;2.00;0.80;;;;;;;17.16;83.03;101701.22;5044944;28;20108;-74
2022/09/02 00:18:45;;;;;;;1.48;0.90;;;;;;;17.10;84.54;101696.75;5042302;28;20029;-74
2022/09/02 00:21:13;;;;;;;10.40;1.20;;;;;;;17.04;84.77;101696.75;5054211;28;20033;-74
2022/09/02 00:23:39;;;;;;;4.50;1.10;;;;;;;17.09;84.51;101695.00;5053580;28;20021;-74
2022/09/02 00:26:05;;;;;;;5.63;1.00;;;;;;;17.11;84.70;101693.22;5059966;28;20378;-74
2022/09/02 00:28:30;;;;;;;5.15;0.88;;;;;;;17.00;84.69;101694.97;5037201;28;20032;-75
2022/09/02 00:30:56;;;;;;;5.82;0.85;;;;;;;16.93;85.30;101698.47;5037185;28;20036;-74
2022/09/02 00:33:21;;;;;;;1.45;0.80;;;;;;;16.96;85.48;101693.19;5049712;28;20067;-73
2022/09/02 00:35:47;;;;;;;1.83;1.08;;;;;;;16.93;86.96;101685.16;5050962;28;20048;-74
2022/09/02 00:38:13;;;;;;;5.40;1.20;;;;;;;16.81;86.32;101686.00;5038471;28;20147;-74
2022/09/02 00:40:43;;;;;;;26.05;1.60;;;;;;;16.81;86.01;101684.22;5046427;28;20036;-74
2022/09/02 00:43:09;;;;;;;2.92;0.95;;;;;;;16.79;86.55;101680.69;5054664;28;20489;-74
2022/09/02 00:45:36;;;;;;;1.58;0.98;;;;;;;16.84;87.33;101681.56;5048945;28;20021;-74
2022/09/02 00:48:04;;;;;;;1.13;0.70;;;;;;;16.75;87.96;101688.63;5037179;28;20030;-74
2022/09/02 00:50:34;;;;;;;3.72;1.05;;;;;;;16.71;88.38;101682.38;5041879;28;20079;-74
2022/09/02 00:53:05;;;;;;;6.43;1.10;;;;;;;16.68;88.48;101674.41;5044595;28;20025;-74
2022/09/02 00:55:43;;;;;;;1.08;0.90;;;;;;;16.72;87.40;101677.97;5043406;28;20021;-73
2022/09/02 00:58:14;;;;;;;1.65;0.82;;;;;;;16.72;87.53;101676.19;5049941;28;20534;-74
2022/09/02 01:00:43;;;;;;;1.98;0.90;;;;;;;16.65;88.33;101679.72;5048874;28;20488;-74
2022/09/02 01:03:11;;;;;;;3.58;1.00;;;;;;;16.65;89.83;101677.06;5054112;28;20504;-74
2022/09/02 01:05:43;;;;;;;0.70;0.70;;;;;;;16.59;87.82;101666.38;5043779;28;20048;-74
2022/09/02 01:08:09;;;;;;;1.95;0.85;;;;;;;16.50;89.10;101665.47;5047470;28;20448;-75
2022/09/02 01:10:35;;;;;;;0.77;0.77;;;;;;;16.47;89.61;101660.13;5051784;28;20049;-74
2022/09/02 01:13:05;;;;;;;1.70;0.70;;;;;;;16.50;89.02;101654.84;5041201;28;20033;-75
2022/09/02 01:15:35;;;;;;;1.67;0.90;;;;;;;16.48;90.18;101659.25;5042014;28;20121;-75
2022/09/02 01:18:01;;;;;;;0.82;0.75;;;;;;;16.42;90.34;101664.53;5055400;28;20032;-74
2022/09/02 01:20:26;;;;;;;6.13;1.10;;;;;;;16.31;91.41;101667.13;5044033;28;20178;-75
2022/09/02 01:22:53;;;;;;;3.22;1.10;;;;;;;16.34;91.47;101656.50;5053306;28;20081;-75
2022/09/02 01:25:23;;;;;;;2.13;0.98;;;;;;;16.32;90.31;101657.41;5055737;28;20044;-74
2022/09/02 01:27:49;;;;;;;3.22;0.95;;;;;;;16.32;89.87;101657.41;5040885;28;20051;-75
2022/09/02 01:30:22;;;;;;;1.55;0.88;;;;;;;16.32;90.23;101662.72;5047665;28;20043;-74
2022/09/02 01:32:48;;;;;;;1.15;1.00;;;;;;;16.32;91.27;101658.28;5045304;28;20025;-74
2022/09/02 01:35:14;;;;;;;4.60;1.10;;;;;;;16.36;91.47;101653.91;5037483;28;20061;-74
2022/09/02 01:37:41;;;;;;;2.55;1.02;;;;;;;16.31;92.43;101655.63;5035533;28;20034;-75
2022/09/02 01:40:10;;;;;;;2.83;1.00;;;;;;;16.25;91.78;101650.25;5049936;28;20439;-74
2022/09/02 01:42:37;;;;;;;2.45;0.73;;;;;;;16.14;92.31;101652.84;5042652;28;20025;-74
2022/09/02 01:45:04;;;;;;;1.25;0.90;;;;;;;16.12;92.50;101644.00;5037460;28;20195;-74
2022/09/02 01:47:29;;;;;;;1.35;0.90;;;;;;;16.08;91.84;101643.09;5055106;28;20029;-74
2022/09/02 01:49:54;;;;;;;1.70;0.80;;;;;;;16.07;92.80;101645.72;5043798;28;20033;-74
2022/09/02 01:52:22;;;;;;;0.98;0.70;;;;;;;16.09;91.81;101639.56;5047125;28;20052;-75
2022/09/02 01:54:49;;;;;;;1.95;1.00;;;;;;;16.09;91.32;101633.34;5043586;28;20103;-73
2022/09/02 01:57:14;;;;;;;1.65;0.93;;;;;;;16.00;92.21;101636.84;5046061;28;20033;-75
2022/09/02 01:59:42;;;;;;;1.33;1.00;;;;;;;16.01;92.64;101634.19;5048300;28;20079;-75
2022/09/02 02:02:08;;;;;;;2.45;1.17;;;;;;;15.99;91.95;101637.72;5047113;28;20048;-74
2022/09/02 02:04:33;;;;;;;1.40;1.00;;;;;;;15.94;92.12;101628.81;5050070;28;20021;-75
2022/09/02 02:06:58;;;;;;;1.90;1.27;;;;;;;15.89;93.39;101630.56;5058544;28;20393;-73
2022/09/02 02:09:24;;;;;;;6.65;1.27;;;;;;;15.81;92.88;101628.72;5038553;28;20077;-74
2022/09/02 02:11:50;;;;;;;5.78;1.35;;;;;;;15.80;92.58;101626.97;5037456;28;20471;-75
2022/09/02 02:14:15;;;;;;;3.97;1.20;;;;;;;15.88;92.40;101634.09;5052151;28;20033;-74
2022/09/02 02:16:40;;;;;;;2.90;1.00;;;;;;;15.84;92.24;101631.44;5049257;28;20032;-74
2022/09/02 02:19:06;;;;;;;1.83;1.00;;;;;;;15.81;93.06;101625.19;5053346;28;20029;-74
2022/09/02 02:21:31;;;;;;;1.65;1.33;;;;;;;15.78;93.00;101622.50;5050798;28;20028;-74
2022/09/02 02:24:00;;;;;;;3.78;0.90;;;;;;;15.69;94.50;101628.59;5038739;28;20029;-74
2022/09/02 02:26:26;;;;;;;3.38;1.25;;;;;;;15.76;94.48;101619.84;5037103;28;20026;-74
2022/09/02 02:28:51;;;;;;;2.17;1.25;;;;;;;15.82;93.90;101617.25;5036668;28;20078;-74
2022/09/02 02:31:16;;;;;;;1.30;1.00;;;;;;;15.73;94.07;101619.78;5052454;28;20536;-74
2022/09/02 02:33:42;;;;;;;3.25;0.95;;;;;;;15.68;94.35;101621.50;5044608;28;20029;-76
2022/09/02 02:36:08;;;;;;;3.95;1.30;;;;;;;15.63;94.37;101623.28;5048494;28;20037;-74
2022/09/02 02:38:34;;;;;;;5.07;1.20;;;;;;;15.63;95.10;101612.66;5049418;28;20040;-73
2022/09/02 02:41:00;;;;;;;2.45;0.82;;;;;;;15.63;95.46;101618.84;5053091;28;20420;-73
2022/09/02 02:43:26;;;;;;;2.05;1.05;;;;;;;15.62;94.90;101617.06;5052971;28;20028;-74
2022/09/02 02:45:53;;;;;;;2.80;1.08;;;;;;;15.59;94.23;101619.69;5051889;28;20029;-74
2022/09/02 02:48:19;;;;;;;3.05;1.10;;;;;;;15.55;94.51;101617.00;5034318;28;20028;-74
2022/09/02 02:50:44;;;;;;;1.65;0.98;;;;;;;15.62;96.28;101618.84;5048562;28;20029;-75
2022/09/02 02:53:11;;;;;;;3.72;1.00;;;;;;;15.57;96.74;101616.16;5034158;28;20029;-75
2022/09/02 02:55:37;;;;;;;2.75;1.10;;;;;;;15.54;95.72;101612.56;5045202;28;20025;-75
2022/09/02 02:58:03;;;;;;;2.85;1.00;;;;;;;15.54;96.31;101613.44;5033956;28;20101;-75
2022/09/02 03:00:30;;;;;;;4.35;1.27;;;;;;;15.51;96.75;101609.00;5043303;28;20049;-75
2022/09/02 03:03:05;;;;;;;3.50;0.90;;;;;;;15.49;96.40;101610.78;5034971;28;20513;-75
2022/09/02 03:05:35;;;;;;;1.40;1.00;;;;;;;15.45;98.07;101614.28;5035325;28;20065;-75
2022/09/02 03:08:02;;;;;;;1.88;1.00;;;;;;;15.42;96.77;101606.28;5039135;28;20025;-74
2022/09/02 03:10:31;;;;;;;1.13;1.00;;;;;;;15.44;98.99;101604.53;5046510;28;20079;-74
2022/09/02 03:12:58;;;;;;;2.55;1.05;;;;;;;15.39;97.35;101594.78;5048915;28;20098;-74
2022/09/02 03:15:23;;;;;;;2.33;1.10;;;;;;;15.43;97.83;101599.22;5051363;28;20599;-74
2022/09/02 03:17:49;;;;;;;1.17;1.05;;;;;;;15.33;98.14;101601.78;5050847;28;20043;-74
2022/09/02 03:20:16;;;;;;;2.38;1.05;;;;;;;15.31;99.06;101600.91;5042838;28;20029;-74
2022/09/02 03:22:43;;;;;;;3.35;1.30;;;;;;;15.30;98.75;101603.50;5045606;28;20530;-74
2022/09/02 03:25:11;;;;;;;1.58;1.00;;;;;;;15.27;100.00;101603.50;5039627;28;20036;-75
2022/09/02 03:27:38;;;;;;;6.60;1.30;;;;;;;15.28;99.14;101602.63;5052382;28;20032;-73
2022/09/02 03:30:07;;;;;;;1.20;1.00;;;;;;;15.26;100.00;101602.63;5045596;28;20037;-74
2022/09/02 03:32:32;;;;;;;1.30;1.00;;;;;;;15.16;100.00;101596.31;5045218;28;20033;-74
2022/09/02 03:34:59;;;;;;;4.63;1.40;;;;;;;15.14;100.00;101598.06;5032479;28;20032;-74
2022/09/02 03:37:25;;;;;;;3.88;1.08;;;;;;;15.22;99.30;101597.25;5036232;28;20025;-74
2022/09/02 03:39:50;;;;;;;4.20;1.10;;;;;;;15.11;100.00;101589.19;5033052;28;20021;-74
2022/09/02 03:42:15;;;;;;;7.07;1.10;;;;;;;15.04;100.00;101588.25;5040115;28;20029;-74
2022/09/02 03:44:41;;;;;;;1.52;1.10;;;;;;;15.01;100.00;101593.53;5040284;28;20431;-73
2022/09/02 03:47:07;;;;;;;1.80;1.27;;;;;;;14.99;100.00;101592.63;5051547;28;20039;-74
2022/09/02 03:49:33;;;;;;;2.88;1.13;;;;;;;15.03;100.00;101593.53;5047736;28;20381;-74
2022/09/02 03:51:59;;;;;;;0.85;0.85;;;;;;;14.98;100.00;101590.84;5040125;28;20104;-74
2022/09/02 03:54:24;;;;;;;1.27;1.05;;;;;;;14.93;100.00;101584.59;5040327;28;20017;-75
2022/09/02 03:56:50;;;;;;;3.42;1.35;;;;;;;14.83;100.00;101587.16;5040252;28;20389;-74
2022/09/02 03:59:16;;;;;;;4.32;1.35;;;;;;;14.86;100.00;101580.13;5039783;28;20509;-75
2022/09/02 04:01:41;;;;;;;3.15;1.08;;;;;;;14.87;100.00;101584.53;5045386;28;20033;-74
2022/09/02 04:04:07;;;;;;;2.33;1.13;;;;;;;14.81;100.00;101578.31;5036482;28;20501;-74
2022/09/02 04:06:33;;;;;;;3.95;1.00;;;;;;;14.80;100.00;101576.53;5047099;28;20039;-74
2022/09/02 04:09:00;;;;;;;3.77;1.33;;;;;;;14.86;100.00;101580.13;5013751;28;1086247;-74
2022/09/02 04:11:25;;;;;;;1.10;0.90;;;;;;;14.81;100.00;101569.47;5047468;28;20025;-75
2022/09/02 04:13:52;;;;;;;2.13;1.08;;;;;;;14.96;100.00;101568.72;5051294;28;20032;-74
2022/09/02 04:16:26;;;;;;;1.45;1.20;;;;;;;14.94;100.00;101565.19;5038332;28;20044;-74
2022/09/02 04:18:51;;;;;;;2.47;1.13;;;;;;;14.82;100.00;101566.81;5048818;28;20024;-73
2022/09/02 04:21:17;;;;;;;6.63;1.15;;;;;;;14.75;100.00;101566.75;5047672;28;20519;-74
2022/09/02 04:23:43;;;;;;;3.70;1.20;;;;;;;14.76;100.00;101569.41;5043586;28;20521;-73
2022/09/02 04:26:12;;;;;;;2.38;1.20;;;;;;;14.79;100.00;101561.50;5060925;28;20112;-73
2022/09/02 04:28:37;;;;;;;1.67;1.00;;;;;;;14.78;100.00;101562.38;5052656;28;20140;-75
2022/09/02 04:31:09;;;;;;;1.38;0.98;;;;;;;14.81;100.00;101559.78;5045248;28;20025;-75
2022/09/02 04:33:35;;;;;;;7.65;1.10;;;;;;;14.75;100.00;101562.34;5051210;28;20114;-75
2022/09/02 04:36:04;;;;;;;2.08;1.20;;;;;;;14.70;100.00;101563.16;5049798;28;20028;-74
2022/09/02 04:38:30;;;;;;;1.25;1.10;;;;;;;14.68;100.00;101555.22;5049755;28;20047;-74
2022/09/02 04:40:56;;;;;;;4.05;1.20;;;;;;;14.68;100.00;101557.84;5048580;28;20405;-72
2022/09/02 04:43:21;;;;;;;2.67;1.38;;;;;;;14.62;100.00;101560.38;5039906;28;20083;-74
2022/09/02 04:45:46;;;;;;;4.30;1.17;;;;;;;14.63;100.00;101554.25;5037099;28;20521;-75
2022/09/02 04:48:12;;;;;;;7.15;1.40;;;;;;;14.66;100.00;101554.28;5039757;28;20370;-73
2022/09/02 04:50:39;;;;;;;2.92;1.02;;;;;;;14.60;100.00;101555.06;5038027;28;20028;-74
2022/09/02 04:53:08;;;;;;;2.35;1.23;;;;;;;14.53;100.00;101550.59;5050711;28;20063;-70
2022/09/02 04:55:34;;;;;;;1.98;1.20;;;;;;;14.54;100.00;101548.81;5044465;28;20027;-69
2022/09/02 04:57:59;;;;;;;3.42;1.35;;;;;;;14.44;100.00;101555.78;5038426;28;20060;-67
2022/09/02 05:00:25;;;;;;;2.65;1.20;;;;;;;14.50;100.00;101548.78;5042569;28;20053;-69
2022/09/02 05:02:52;;;;;;;4.28;1.27;;;;;;;14.49;100.00;101544.34;5041683;28;20033;-68
2022/09/02 05:05:18;;;;;;;1.80;1.38;;;;;;;14.47;100.00;101548.75;5042072;28;20246;-69
2022/09/02 05:07:44;;;;;;;2.53;1.25;;;;;;;14.44;100.00;101555.78;5047033;28;20400;-69
2022/09/02 05:10:14;;;;;;;1.33;1.20;;;;;;;14.39;100.00;101558.38;5043113;28;20564;-68
2022/09/02 05:12:40;;;;;;;1.95;1.00;;;;;;;14.40;100.00;101554.84;5044729;28;20021;-69
2022/09/02 05:15:07;;;;;;;4.80;1.70;;;;;;;14.40;100.00;101560.13;5056805;28;20469;-68
2022/09/02 05:17:34;;;;;;;1.80;1.30;;;;;;;14.43;100.00;101554.91;5045371;28;20066;-68
2022/09/02 05:20:00;;;;;;;8.20;1.17;;;;;;;14.44;100.00;101555.78;5042368;28;20029;-69
2022/09/02 05:22:28;;;;;;;3.45;1.15;;;;;;;14.44;100.00;101556.66;5043038;28;20037;-70
2022/09/02 05:24:54;;;;;;;3.70;1.30;;;;;;;14.46;100.00;101556.66;5042197;28;20032;-68
2022/09/02 05:27:19;;;;;;;3.97;1.20;;;;;;;14.46;100.00;101557.56;5040978;28;20037;-69
2022/09/02 05:29:45;;;;;;;4.47;1.20;;;;;;;14.42;100.00;101561.06;5036020;28;20025;-68
2022/09/02 05:32:10;;;;;;;4.95;1.10;;;;;;;14.45;100.00;101558.44;5034603;28;20029;-68
2022/09/02 05:34:36;;;;;;;0.98;0.93;;;;;;;14.43;100.00;101552.25;5039622;28;20104;-69
2022/09/02 05:37:02;;;;;;;5.78;1.27;;;;;;;14.47;100.00;101558.44;5050475;28;20020;-69
2022/09/02 05:39:28;;;;;;;5.97;1.50;;;;;;;14.43;100.00;101559.28;5039604;28;20040;-69
2022/09/02 05:41:54;;;;;;;1.92;1.50;;;;;;;14.50;100.00;101559.38;5046030;28;20025;-69
2022/09/02 05:44:19;;;;;;;3.88;1.30;;;;;;;14.47;100.00;101556.72;5044494;28;20048;-69
2022/09/02 05:46:45;;;;;;;4.32;1.30;;;;;;;14.54;100.00;101559.41;5039808;28;20040;-69
2022/09/02 05:49:16;;;;;;;5.15;1.50;;;;;;;14.51;100.00;101554.97;5041550;28;20085;-70
2022/09/02 05:51:44;;;;;;;8.00;1.55;;;;;;;14.60;100.00;101557.72;5054847;28;20024;-69
2022/09/02 05:54:23;;;;;;;3.00;1.52;;;;;;;14.54;100.00;101562.06;5036330;28;20040;-68
2022/09/02 05:56:51;;;;;;;5.47;1.20;;;;;;;14.60;100.00;101559.50;5036809;28;20040;-67
2022/09/02 05:59:17;;;;;;;2.33;1.20;;;;;;;14.55;100.00;101554.13;5041690;28;20032;-68
2022/09/02 06:01:43;;;;;;;4.95;1.40;;;;;;;14.54;100.00;101557.66;5048285;28;20064;-69
2022/09/02 06:04:08;;;;;;;9.95;1.58;;;;;;;14.53;100.00;101549.69;5036036;28;20060;-69
2022/09/02 06:06:37;;;;;;;5.40;1.58;;;;;;;14.53;100.00;101552.31;5047544;28;20068;-69
2022/09/02 06:09:04;;;;;;;4.75;1.48;;;;;;;14.53;100.00;101549.69;5044720;28;20473;-69
2022/09/02 06:11:29;;;;;;;9.43;1.70;;;;;;;14.55;100.00;101542.66;5038070;28;20028;-69
2022/09/02 06:13:56;;;;;;;3.40;1.13;;;;;;;14.53;100.00;101541.75;5034931;28;20029;-69
2022/09/02 06:16:22;;;;;;;2.53;1.30;;;;;;;14.59;100.00;101545.34;5043256;28;20084;-69
2022/09/02 06:18:49;;;;;;;3.95;1.20;;;;;;;14.61;100.00;101548.00;5034234;28;20028;-69
2022/09/02 06:21:15;;;;;;;8.82;1.75;;;;;;;14.65;100.00;101550.75;5044379;28;20048;-69
2022/09/02 06:23:41;;;;;;;3.10;1.98;;;;;;;14.66;100.00;101548.97;5034366;28;20026;-69
2022/09/02 06:26:08;;;;;;;2.35;1.50;;;;;;;14.67;100.00;101554.28;5036878;28;20034;-69
2022/09/02 06:28:34;;;;;;;1.98;1.33;;;;;;;14.69;100.00;101545.47;5034523;28;20025;-69
2022/09/02 06:31:15;;;;;;;5.97;1.40;;;;;;;14.68;100.00;101549.91;5034765;28;20030;-68
2022/09/02 06:33:43;;;;;;;1.77;1.27;;;;;;;14.74;100.00;101549.94;5050948;28;20476;-68
2022/09/02 06:36:12;;;;;;;7.07;2.13;;;;;;;14.81;100.00;101546.53;5043011;28;20081;-69
2022/09/02 06:38:40;;;;;;;4.68;1.58;;;;;;;14.90;100.00;101545.72;5037336;28;20028;-67
2022/09/02 06:41:06;;;;;;;9.07;1.50;;;;;;;14.97;100.00;101549.31;5042436;28;20028;-69
2022/09/02 06:43:32;;;;;;;4.80;1.30;;;;;;;14.97;100.00;101547.53;5038449;28;20025;-68
2022/09/02 06:45:57;;;;;;;4.00;1.70;;;;;;;15.05;100.00;101550.28;5037750;28;20021;-69
2022/09/02 06:48:22;;;;;;;7.10;1.63;;;;;;;15.10;100.00;101547.69;5044200;28;20083;-69
2022/09/02 06:50:48;;;;;;;3.67;1.55;;;;;;;15.16;100.00;101543.28;5036799;28;20112;-69
2022/09/02 06:53:14;;;;;;;3.45;1.48;;;;;;;15.27;100.00;101540.72;5055915;28;20030;-70
2022/09/02 06:55:41;;;;;;;7.28;2.05;;;;;;;15.29;100.00;101546.06;5043283;28;20519;-69
2022/09/02 06:58:08;;;;;;;5.18;1.55;;;;;;;15.29;100.00;101543.44;5055012;28;20044;-69
2022/09/02 07:00:34;;;;;;;3.15;1.50;;;;;;;15.35;100.00;101543.47;5043259;28;20025;-70
2022/09/02 07:05:45;;;;;;;6.60;1.92;;;;;;;15.44;100.00;101540.88;5038790;28;20444;-70
2022/09/02 07:08:11;;;;;;;4.85;2.38;;;;;;;15.48;100.00;101539.16;5033317;28;20111;-68
2022/09/02 07:10:38;;;;;;;3.53;1.80;;;;;;;15.57;100.00;101535.66;5043049;28;20124;-67
2022/09/02 07:13:05;;;;;;;4.40;1.58;;;;;;;15.63;100.00;101538.38;5034051;28;20032;-67
2022/09/02 07:15:31;;;;;;;4.55;1.70;;;;;;;15.70;100.00;101532.22;5057927;28;20024;-68
2022/09/02 07:17:56;;;;;;;4.25;1.58;;;;;;;15.74;100.00;101535.78;5040839;28;20461;-68
2022/09/02 07:20:22;;;;;;;6.45;1.70;;;;;;;15.81;100.00;101530.53;5034529;28;20021;-68
2022/09/02 07:22:48;;;;;;;3.88;1.65;;;;;;;15.93;100.00;101528.84;5038675;28;20035;-69
2022/09/02 07:25:15;;;;;;;6.95;1.92;;;;;;;16.00;100.00;101528.00;5050436;28;20473;-68
2022/09/02 07:27:42;;;;;;;3.70;1.67;;;;;;;16.04;100.00;101519.16;5039274;28;20036;-69
2022/09/02 07:30:09;;;;;;;4.00;1.40;;;;;;;16.16;100.00;101518.34;5043199;28;20021;-70
2022/09/02 07:32:34;;;;;;;3.00;1.83;;;;;;;16.24;100.00;101521.03;5040206;28;20064;-70
2022/09/02 07:35:00;;;;;;;5.00;1.50;;;;;;;16.37;100.00;101521.97;5051171;28;20059;-69
2022/09/02 07:37:26;;;;;;;4.22;1.50;;;;;;;16.46;100.00;101514.91;5055840;28;20040;-70
2022/09/02 07:39:51;;;;;;;6.20;1.65;;;;;;;16.57;100.00;101508.75;5040301;28;20425;-68
2022/09/02 07:42:18;;;;;;;9.93;1.58;;;;;;;16.67;100.00;101511.41;5034362;28;20023;-68
2022/09/02 07:44:43;;;;;;;3.42;1.38;;;;;;;16.78;100.00;101514.09;5035082;28;20556;-69
2022/09/02 07:47:09;;;;;;;2.22;1.55;;;;;;;16.87;99.28;101513.22;5034503;28;20030;-70
2022/09/02 07:49:35;;;;;;;5.40;1.80;;;;;;;16.94;97.42;101509.72;5044748;28;20029;-68
2022/09/02 07:52:00;;;;;;;5.32;1.65;;;;;;;17.06;99.30;101510.63;5042162;28;20028;-69
2022/09/02 07:54:26;;;;;;;4.53;1.85;;;;;;;17.15;100.00;101507.97;5047810;28;20026;-70
2022/09/02 07:56:51;;;;;;;9.43;1.60;;;;;;;17.29;97.70;101505.28;5057955;28;20051;-68
2022/09/02 07:59:18;;;;;;;6.18;1.75;;;;;;;17.39;97.95;101511.47;5053518;28;20049;-68
2022/09/02 08:01:44;;;;;;;8.15;1.67;;;;;;;17.51;95.48;101506.13;5057174;28;20056;-69
2022/09/02 08:04:09;;;;;;;7.38;1.70;;;;;;;17.60;95.88;101510.56;5071466;28;20455;-70
2022/09/02 08:06:36;;;;;;;5.55;1.70;;;;;;;17.68;94.59;101504.34;5036156;28;20021;-68
2022/09/02 08:09:10;;;;;;;3.65;1.55;;;;;;;17.74;96.34;101511.41;5032294;28;20068;-69
2022/09/02 08:11:38;;;;;;;3.60;1.80;;;;;;;17.83;94.66;101511.41;5032272;28;20458;-68
2022/09/02 08:14:05;;;;;;;3.58;1.95;;;;;;;17.94;93.80;101511.41;5035198;28;20032;-70
2022/09/02 08:16:30;;;;;;;4.50;1.73;;;;;;;18.01;91.12;101510.50;5034902;28;20022;-69
2022/09/02 08:18:56;;;;;;;4.45;1.67;;;;;;;18.17;93.25;101505.09;5036969;28;20140;-69
2022/09/02 08:21:23;;;;;;;8.73;1.92;;;;;;;18.30;91.29;101506.81;5039043;28;20077;-69
2022/09/02 08:23:49;;;;;;;4.50;1.50;;;;;;;18.46;90.64;101501.41;5062623;28;20032;-69
2022/09/02 08:26:16;;;;;;;3.35;1.58;;;;;;;18.58;88.79;101495.13;5056725;28;20468;-69
2022/09/02 08:28:42;;;;;;;6.93;2.08;;;;;;;18.73;88.19;101503.00;5068558;28;20119;-68
2022/09/02 08:31:07;;;;;;;5.50;1.55;;;;;;;18.87;88.54;101503.81;5055459;28;20119;-68
2022/09/02 08:33:33;;;;;;;4.60;1.95;;;;;;;18.99;85.02;101501.97;5033688;28;20055;-69
2022/09/02 08:36:08;;;;;;;2.85;1.80;;;;;;;19.07;84.72;101502.78;5037946;28;20044;-69
2022/09/02 08:38:34;;;;;;;3.33;1.73;;;;;;;19.15;85.78;101494.72;5052468;28;20036;-68
2022/09/02 08:41:00;;;;;;;5.25;1.90;;;;;;;19.20;83.54;101493.78;5039425;28;20025;-69
2022/09/02 08:43:40;;;;;;;6.68;1.90;;;;;;;19.33;85.71;101494.56;5036650;28;20033;-68
2022/09/02 08:46:09;;;;;;;4.60;1.95;;;;;;;19.43;84.84;101494.50;5051387;28;20377;-69
2022/09/02 08:48:56;;;;;;;4.43;2.22;;;;;;;19.55;85.54;101497.03;5076370;28;20407;-68
2022/09/02 08:51:24;;;;;;;2.75;2.33;;;;;;;19.68;85.98;101489.75;5076046;28;20032;-69
2022/09/02 08:54:19;;;;;;;3.92;1.73;;;;;;;19.73;84.22;101490.59;5063332;28;20079;-68
2022/09/02 08:56:45;;;;;;;2.83;1.70;;;;;;;19.81;84.98;101491.44;5037944;28;20029;-69
2022/09/02 08:59:13;;;;;;;5.78;2.05;;;;;;;19.91;83.41;101483.31;5053344;28;20085;-69
2022/09/02 09:01:50;;;;;;;2.80;2.05;;;;;;;19.95;83.22;101483.25;5042653;28;20033;-69
2022/09/02 09:04:17;;;;;;;7.90;2.38;;;;;;;20.07;84.62;101486.69;5042645;28;20040;-70
2022/09/02 09:07:03;;;;;;;4.68;2.05;;;;;;;20.11;83.95;101472.38;5042634;28;20029;-70
2022/09/02 09:09:38;;;;;;;2.85;1.80;;;;;;;20.11;82.58;101477.72;5041003;28;20084;-70
2022/09/02 09:12:29;;;;;;;2.67;1.75;;;;;;;19.98;82.66;101474.31;5046675;28;20108;-69
2022/09/02 09:15:09;;;;;;;3.78;1.90;;;;;;;19.91;83.22;101484.19;5028119;28;20041;-69
2022/09/02 09:17:56;;;;;;;2.28;1.80;;;;;;;19.79;83.01;101482.53;5048492;28;20036;-70
2022/09/02 09:20:27;;;;;;;6.25;2.30;;;;;;;19.71;84.22;101485.28;5044411;28;20036;-70
2022/09/02 09:22:58;;;;;;;2.53;1.90;;;;;;;19.65;85.32;101484.47;5043273;28;20412;-69
2022/09/02 09:25:28;;;;;;;6.47;1.83;;;;;;;19.58;86.55;101482.78;5048105;28;20037;-69
2022/09/02 09:27:55;;;;;;;6.63;2.25;;;;;;;19.55;86.48;101473.00;5043389;28;20500;-69
2022/09/02 09:30:20;;;;;;;4.30;2.05;;;;;;;19.58;86.17;101477.44;5036127;28;20431;-69
2022/09/02 09:32:50;;;;;;;4.85;2.13;;;;;;;19.65;85.74;101479.13;5040165;28;20163;-68
2022/09/02 09:35:17;;;;;;;6.93;2.40;;;;;;;19.66;85.96;101476.44;5052212;28;20381;-69
2022/09/02 09:37:46;;;;;;;7.25;1.90;;;;;;;19.69;88.10;101476.38;5035686;28;20503;-69
2022/09/02 09:40:19;;;;;;;7.07;1.85;;;;;;;19.73;87.36;101479.03;5035431;28;20473;-68
2022/09/02 09:42:45;;;;;;;8.68;2.22;;;;;;;19.83;87.20;101470.94;5046606;28;20033;-69
2022/09/02 09:45:17;;;;;;;4.65;2.28;;;;;;;19.96;86.01;101470.78;5035598;28;20025;-70
2022/09/02 09:47:42;;;;;;;3.13;2.08;;;;;;;20.07;85.20;101462.63;5039882;28;20120;-69
2022/09/02 09:50:15;;;;;;;11.18;2.60;;;;;;;20.27;84.67;101457.91;5056694;28;20515;-69
2022/09/02 09:52:41;;;;;;;3.35;2.08;;;;;;;20.73;86.48;101464.41;5045064;28;20051;-69
2022/09/02 09:55:21;;;;;;;3.53;2.17;;;;;;;21.28;82.18;101461.69;5052755;28;20174;-69
2022/09/02 09:57:48;;;;;;;4.43;2.50;;;;;;;21.63;78.87;101460.16;5054514;28;20029;-68
2022/09/02 10:00:30;;;;;;;6.22;2.20;;;;;;;21.95;77.47;101461.28;5045097;28;20033;-69
2022/09/02 10:02:59;;;;;;;3.75;2.25;;;;;;;22.27;78.19;101457.91;5036873;28;20028;-69
2022/09/02 10:05:24;;;;;;;3.20;2.05;;;;;;;22.59;74.15;101460.84;5037007;28;20059;-68
2022/09/02 10:07:56;;;;;;;6.00;3.27;;;;;;;22.73;71.35;101461.34;5045420;28;20104;-68
2022/09/02 10:10:24;;;;;;;4.32;2.30;;;;;;;22.93;71.28;101451.94;5063194;28;20611;-69
2022/09/02 10:12:52;;;;;;;3.28;2.05;;;;;;;23.05;72.50;101460.56;5047341;28;20026;-69
2022/09/02 10:15:43;;;;;;;8.88;2.30;;;;;;;23.07;73.48;101457.81;5035288;28;20057;-68
2022/09/02 10:18:27;;;;;;;6.47;2.55;;;;;;;23.03;71.92;101451.69;5032426;28;20522;-69
2022/09/02 10:20:59;;;;;;;9.27;2.65;;;;;;;23.05;73.30;101463.25;5036197;28;20025;-68
2022/09/02 10:23:31;;;;;;;4.78;2.47;;;;;;;23.07;72.57;101456.03;5045032;28;20024;-68
2022/09/02 10:26:29;;;;;;;11.05;2.55;;;;;;;23.12;72.31;101450.53;5055154;28;20045;-69
2022/09/02 10:29:23;;;;;;;11.40;2.30;;;;;;;23.31;74.03;101455.47;5040986;28;20501;-69
2022/09/02 10:32:01;;;;;;;5.72;2.25;;;;;;;23.45;72.42;101447.88;5049173;28;20063;-68
2022/09/02 10:34:54;;;;;;;5.72;2.28;;;;;;;23.62;70.73;101450.13;5039292;28;20034;-68
2022/09/02 10:37:23;;;;;;;6.00;2.65;;;;;;;23.73;67.75;101436.38;5043634;28;20124;-68
2022/09/02 10:40:09;;;;;;;3.95;2.53;;;;;;;23.92;69.96;101438.56;5052906;28;20380;-68
2022/09/02 10:42:53;;;;;;;6.07;2.63;;;;;;;23.99;70.88;101435.63;5033789;28;20054;-68
2022/09/02 10:45:49;;;;;;;10.20;2.75;;;;;;;24.11;68.38;101430.81;5033734;28;20064;-69
2022/09/02 10:48:36;;;;;;;3.90;2.60;;;;;;;24.18;67.64;101424.31;5051918;28;20033;-68
2022/09/02 10:51:41;;;;;;;9.38;2.50;;;;;;;24.37;69.22;101436.25;5040408;28;20508;-67
2022/09/02 10:54:38;;;;;;;4.05;2.30;;;;;;;24.80;66.05;101428.63;5035154;28;20029;-68
2022/09/02 10:57:31;;;;;;;4.05;2.63;;;;;;;25.19;64.64;101430.88;5034000;28;20057;-69
2022/09/02 11:00:06;;;;;;;9.77;2.88;;;;;;;25.40;62.39;101431.06;5030943;28;20056;-68
2022/09/02 11:02:46;;;;;;;4.70;2.22;;;;;;;25.61;61.96;101426.72;5039835;28;20031;-68
2022/09/02 11:05:49;;;;;;;6.85;2.22;;;;;;;25.66;62.86;101424.72;5047871;28;20087;-69
2022/09/02 11:08:31;;;;;;;5.95;2.50;;;;;;;25.71;60.27;101425.41;5038027;28;20033;-69
2022/09/02 11:11:10;;;;;;;5.38;2.67;;;;;;;25.93;59.34;101417.38;5042520;28;20493;-68
2022/09/02 11:13:38;;;;;;;3.75;2.63;;;;;;;26.08;58.33;101415.94;5035278;28;20132;-68
2022/09/02 11:16:28;;;;;;;9.25;2.90;;;;;;;26.31;57.69;101415.97;5046954;28;20026;-69
2022/09/02 11:18:59;;;;;;;5.70;2.75;;;;;;;26.58;56.25;101404.03;5040710;28;20516;-69
2022/09/02 11:21:46;;;;;;;6.95;2.50;;;;;;;26.69;56.66;101413.50;5044012;28;20044;-69
2022/09/02 11:24:23;;;;;;;3.30;2.47;;;;;;;26.98;56.97;101409.63;5043734;28;20028;-67
2022/09/02 11:27:15;;;;;;;4.70;2.30;;;;;;;27.35;53.37;101399.00;5043449;28;20083;-69
2022/09/02 11:30:12;;;;;;;7.13;2.60;;;;;;;27.52;53.21;101396.41;5063061;28;20032;-69
2022/09/02 11:33:07;;;;;;;6.03;2.33;;;;;;;27.84;50.15;101396.75;5050185;28;20051;-69
2022/09/02 11:35:37;;;;;;;11.32;2.55;;;;;;;27.87;50.20;101390.31;5046250;28;20495;-69